createdAt,value
2023-04-28T00:00:56.593Z,1.27
2023-04-28T00:01:56.621Z,1.18
2023-04-28T00:02:56.720Z,1.38
2023-04-28T00:03:56.748Z,1.51
2023-04-28T00:04:56.855Z,1.62
2023-04-28T00:05:56.723Z,1.46
2023-04-28T00:06:56.641Z,1.13
2023-04-28T00:07:56.597Z,1.25
2023-04-28T00:08:56.603Z,1.41
2023-04-28T00:09:56.611Z,1.26
2023-04-28T00:10:56.627Z,0.94
2023-04-28T00:11:56.606Z,1.21
2023-04-28T00:12:56.563Z,1.34
2023-04-28T00:13:56.173Z,1.49
2023-04-28T00:14:56.154Z,0.94
2023-04-28T00:15:56.162Z,1.44
2023-04-28T00:16:56.264Z,1.24
2023-04-28T00:17:56.154Z,1.14
2023-04-28T00:18:56.067Z,1.28
2023-04-28T00:19:56.058Z,1.20
2023-04-28T00:20:56.031Z,1.31
2023-04-28T00:21:56.011Z,1.57
2023-04-28T00:22:55.982Z,1.39
2023-04-28T00:23:55.964Z,1.14
2023-04-28T00:24:55.939Z,1.36
2023-04-28T00:25:55.923Z,1.37
2023-04-28T00:26:55.923Z,1.12
2023-04-28T00:27:55.873Z,1.37
2023-04-28T00:28:55.840Z,1.20
2023-04-28T00:29:55.871Z,1.44
2023-04-28T00:30:55.800Z,1.33
2023-04-28T00:31:55.814Z,1.06
2023-04-28T00:32:55.812Z,1.35
2023-04-28T00:33:55.740Z,1.18
2023-04-28T00:34:55.714Z,1.36
2023-04-28T00:35:55.686Z,1.25
2023-04-28T00:36:55.687Z,1.15
2023-04-28T00:37:55.639Z,1.25
2023-04-28T00:38:55.615Z,1.05
2023-04-28T00:39:55.589Z,1.00
2023-04-28T00:40:55.566Z,1.14
2023-04-28T00:41:55.538Z,1.16
2023-04-28T00:42:55.533Z,1.47
2023-04-28T00:43:55.476Z,1.26
2023-04-28T00:44:55.472Z,1.20
2023-04-28T00:45:55.547Z,0.98
2023-04-28T00:46:55.452Z,1.31
2023-04-28T00:47:55.480Z,1.29
2023-04-28T00:48:55.433Z,1.24
2023-04-28T00:49:55.403Z,1.42
2023-04-28T00:50:55.386Z,1.30
2023-04-28T00:51:55.376Z,1.37
2023-04-28T00:52:55.361Z,1.44
2023-04-28T00:53:55.344Z,1.18
2023-04-28T00:54:55.340Z,1.23
2023-04-28T00:55:55.320Z,1.34
2023-04-28T00:56:55.310Z,1.09
2023-04-28T00:57:55.311Z,1.31
2023-04-28T00:58:55.304Z,1.19
2023-04-28T00:59:55.278Z,1.24
2023-04-28T01:00:55.270Z,1.07
2023-04-28T01:01:55.255Z,1.41
2023-04-28T01:02:55.391Z,1.26
2023-04-28T01:03:55.422Z,1.54
2023-04-28T01:04:55.216Z,1.36
2023-04-28T01:05:55.219Z,1.25
2023-04-28T01:06:55.220Z,1.16
2023-04-28T01:07:55.223Z,1.35
2023-04-28T01:08:55.203Z,1.38
2023-04-28T01:09:55.201Z,1.03
2023-04-28T01:10:55.164Z,1.00
2023-04-28T01:11:55.163Z,1.38
2023-04-28T01:12:55.161Z,1.39
2023-04-28T01:13:55.126Z,1.02
2023-04-28T01:14:55.147Z,1.15
2023-04-28T01:15:55.099Z,1.11
2023-04-28T01:16:55.152Z,1.25
2023-04-28T01:17:55.082Z,1.36
2023-04-28T01:18:55.066Z,1.33
2023-04-28T01:19:55.047Z,1.02
2023-04-28T01:20:55.049Z,1.34
2023-04-28T01:21:55.022Z,1.14
2023-04-28T01:22:54.990Z,1.23
2023-04-28T01:23:54.996Z,1.25
2023-04-28T01:24:54.963Z,1.15
2023-04-28T01:25:54.953Z,0.96
2023-04-28T01:26:54.939Z,1.42
2023-04-28T01:27:54.914Z,1.02
2023-04-28T01:28:54.921Z,1.34
2023-04-28T01:29:54.896Z,1.29
2023-04-28T01:30:54.914Z,1.27
2023-04-28T01:31:54.896Z,1.38
2023-04-28T01:32:54.895Z,1.64
2023-04-28T01:33:54.873Z,1.13
2023-04-28T01:34:54.855Z,1.19
2023-04-28T01:35:54.841Z,1.29
2023-04-28T01:36:54.838Z,1.28
2023-04-28T01:37:54.820Z,1.29
2023-04-28T01:38:54.823Z,1.43
2023-04-28T01:39:54.815Z,0.93
2023-04-28T01:40:54.824Z,1.37
2023-04-28T01:41:54.794Z,1.23
2023-04-28T01:42:54.769Z,1.08
2023-04-28T01:43:54.755Z,1.15
2023-04-28T01:44:54.750Z,1.09
2023-04-28T01:45:54.750Z,1.19
2023-04-28T01:46:54.741Z,1.19
2023-04-28T01:47:54.793Z,1.33
2023-04-28T01:48:54.697Z,1.21
2023-04-28T01:49:54.679Z,1.16
2023-04-28T01:50:54.671Z,1.30
2023-04-28T01:51:54.681Z,1.30
2023-04-28T01:52:54.661Z,1.33
2023-04-28T01:53:54.660Z,1.28
2023-04-28T01:54:54.645Z,1.05
2023-04-28T01:55:54.622Z,1.16
2023-04-28T01:56:54.632Z,1.18
2023-04-28T01:57:54.627Z,1.06
2023-04-28T01:58:54.608Z,1.11
2023-04-28T01:59:54.609Z,0.99
2023-04-28T02:00:54.581Z,1.42
2023-04-28T02:01:54.651Z,1.49
2023-04-28T02:02:54.721Z,1.07
2023-04-28T02:03:54.790Z,1.17
2023-04-28T02:04:54.594Z,1.04
2023-04-28T02:05:54.591Z,1.10
2023-04-28T02:06:54.576Z,1.05
2023-04-28T02:07:54.558Z,1.15
2023-04-28T02:08:54.566Z,0.96
2023-04-28T02:09:54.598Z,1.10
2023-04-28T02:10:54.591Z,1.68
2023-04-28T02:11:54.620Z,1.45
2023-04-28T02:12:54.581Z,1.22
2023-04-28T02:13:54.579Z,1.16
2023-04-28T02:14:54.571Z,1.01
2023-04-28T02:15:54.611Z,1.21
2023-04-28T02:16:54.545Z,1.29
2023-04-28T02:17:54.603Z,1.32
2023-04-28T02:18:54.547Z,1.17
2023-04-28T02:19:54.533Z,1.33
2023-04-28T02:20:54.530Z,1.24
2023-04-28T02:21:54.525Z,1.17
2023-04-28T02:22:54.523Z,1.18
2023-04-28T02:23:54.512Z,1.27
2023-04-28T02:24:54.504Z,1.39
2023-04-28T02:25:54.489Z,1.26
2023-04-28T02:26:54.494Z,0.72
2023-04-28T02:27:54.477Z,1.19
2023-04-28T02:28:54.463Z,0.92
2023-04-28T02:29:54.461Z,1.17
2023-04-28T02:30:54.442Z,1.12
2023-04-28T02:31:54.582Z,1.13
2023-04-28T02:32:54.528Z,1.37
2023-04-28T02:33:54.412Z,1.08
2023-04-28T02:34:54.416Z,1.05
2023-04-28T02:35:54.379Z,1.51
2023-04-28T02:36:54.380Z,1.09
2023-04-28T02:37:54.367Z,1.34
2023-04-28T02:38:54.344Z,1.02
2023-04-28T02:39:54.335Z,1.20
2023-04-28T02:40:54.381Z,1.23
2023-04-28T02:41:54.323Z,1.36
2023-04-28T02:42:54.307Z,0.81
2023-04-28T02:43:54.299Z,1.20
2023-04-28T02:44:54.300Z,1.10
2023-04-28T02:45:54.290Z,1.42
2023-04-28T02:46:54.308Z,1.46
2023-04-28T02:47:54.288Z,1.00
2023-04-28T02:48:54.258Z,1.24
2023-04-28T02:49:54.244Z,0.99
2023-04-28T02:50:54.268Z,1.24
2023-04-28T02:51:54.215Z,1.19
2023-04-28T02:52:54.216Z,0.99
2023-04-28T02:53:54.200Z,1.01
2023-04-28T02:54:54.182Z,0.92
2023-04-28T02:55:54.189Z,1.11
2023-04-28T02:56:54.156Z,1.03
2023-04-28T02:57:54.172Z,1.37
2023-04-28T02:58:54.132Z,1.21
2023-04-28T02:59:54.105Z,1.30
2023-04-28T03:00:54.114Z,1.34
2023-04-28T03:01:54.092Z,1.08
2023-04-28T03:02:54.118Z,1.14
2023-04-28T03:03:54.268Z,1.12
2023-04-28T03:04:54.096Z,1.26
2023-04-28T03:05:54.113Z,1.11
2023-04-28T03:06:54.055Z,1.24
2023-04-28T03:07:54.004Z,1.27
2023-04-28T03:08:54.005Z,1.54
2023-04-28T03:09:53.971Z,0.98
2023-04-28T03:10:53.991Z,1.15
2023-04-28T03:11:53.964Z,1.17
2023-04-28T03:12:53.956Z,0.98
2023-04-28T03:13:53.912Z,1.25
2023-04-28T03:14:53.900Z,1.08
2023-04-28T03:15:53.919Z,1.22
2023-04-28T03:16:53.980Z,1.40
2023-04-28T03:17:53.957Z,1.28
2023-04-28T03:18:53.854Z,1.08
2023-04-28T03:19:53.845Z,1.18
2023-04-28T03:20:53.860Z,1.33
2023-04-28T03:21:53.810Z,1.05
2023-04-28T03:22:53.824Z,1.48
2023-04-28T03:23:53.798Z,1.15
2023-04-28T03:24:53.777Z,1.07
2023-04-28T03:25:53.797Z,1.26
2023-04-28T03:26:53.758Z,1.24
2023-04-28T03:27:53.755Z,1.28
2023-04-28T03:28:53.743Z,1.16
2023-04-28T03:29:53.721Z,0.98
2023-04-28T03:30:53.725Z,0.88
2023-04-28T03:31:53.719Z,0.80
2023-04-28T03:32:53.739Z,1.30
2023-04-28T03:33:53.670Z,1.07
2023-04-28T03:34:53.668Z,1.15
2023-04-28T03:35:53.711Z,1.17
2023-04-28T03:36:53.644Z,1.56
2023-04-28T03:37:53.648Z,0.89
2023-04-28T03:38:53.677Z,1.06
2023-04-28T03:39:53.639Z,1.23
2023-04-28T03:40:53.663Z,1.10
2023-04-28T03:41:53.643Z,1.02
2023-04-28T03:42:53.655Z,1.20
2023-04-28T03:43:53.643Z,1.33
2023-04-28T03:44:53.630Z,0.96
2023-04-28T03:45:53.666Z,1.27
2023-04-28T03:46:53.646Z,0.80
2023-04-28T03:47:53.605Z,1.09
2023-04-28T03:48:53.592Z,1.35
2023-04-28T03:49:53.573Z,1.14
2023-04-28T03:50:53.559Z,1.36
2023-04-28T03:51:53.586Z,1.14
2023-04-28T03:52:53.546Z,1.39
2023-04-28T03:53:53.554Z,1.20
2023-04-28T03:54:53.553Z,1.25
2023-04-28T03:55:53.515Z,1.16
2023-04-28T03:56:53.533Z,1.13
2023-04-28T03:57:53.526Z,0.91
2023-04-28T03:58:53.519Z,1.00
2023-04-28T03:59:53.498Z,1.18
2023-04-28T04:00:53.468Z,1.53
2023-04-28T04:01:53.455Z,1.33
2023-04-28T04:02:53.585Z,1.19
2023-04-28T04:03:53.720Z,1.20
2023-04-28T04:04:53.731Z,1.11
2023-04-28T04:05:53.677Z,1.16
2023-04-28T04:06:53.419Z,1.38
2023-04-28T04:07:53.418Z,1.30
2023-04-28T04:08:53.466Z,1.17
2023-04-28T04:09:53.388Z,1.51
2023-04-28T04:10:53.390Z,1.29
2023-04-28T04:11:53.389Z,1.37
2023-04-28T04:12:53.375Z,1.28
2023-04-28T04:13:53.343Z,1.34
2023-04-28T04:14:53.359Z,1.21
2023-04-28T04:15:53.355Z,1.12
2023-04-28T04:18:08.795Z,0.89
2023-04-28T04:19:09.755Z,1.53
2023-04-28T04:20:09.774Z,1.19
2023-04-28T04:21:09.737Z,1.36
2023-04-28T04:22:09.745Z,1.17
2023-04-28T04:23:09.744Z,1.24
2023-04-28T04:24:09.742Z,1.36
2023-04-28T04:25:09.751Z,1.12
2023-04-28T04:26:09.776Z,1.22
2023-04-28T04:27:09.743Z,1.21
2023-04-28T04:28:09.713Z,1.14
2023-04-28T04:29:09.719Z,1.38
2023-04-28T04:30:09.331Z,1.36
2023-04-28T04:31:09.368Z,1.09
2023-04-28T04:32:09.321Z,0.98
2023-04-28T04:33:09.783Z,1.11
2023-04-28T04:34:09.752Z,0.88
2023-04-28T04:35:09.782Z,1.23
2023-04-28T04:36:09.763Z,1.00
2023-04-28T04:37:09.757Z,1.37
2023-04-28T04:38:09.751Z,1.30
2023-04-28T04:39:09.751Z,1.34
2023-04-28T04:40:09.761Z,1.29
2023-04-28T04:41:09.771Z,1.04
2023-04-28T04:42:23.441Z,1.17
2023-04-28T04:43:09.752Z,1.24
2023-04-28T04:44:09.755Z,1.41
2023-04-28T04:45:09.777Z,1.19
2023-04-28T04:46:09.800Z,1.15
2023-04-28T04:47:09.758Z,0.94
2023-04-28T04:48:09.832Z,1.32
2023-04-28T04:49:09.758Z,1.04
2023-04-28T04:50:09.765Z,1.15
2023-04-28T04:51:09.764Z,1.31
2023-04-28T04:52:09.759Z,1.24
2023-04-28T04:53:13.874Z,0.99
2023-04-28T04:54:09.769Z,1.40
2023-04-28T04:55:09.761Z,1.13
2023-04-28T04:56:09.765Z,1.05
2023-04-28T04:57:09.767Z,1.16
2023-04-28T04:58:09.794Z,1.51
2023-04-28T04:59:09.763Z,1.35
2023-04-28T05:00:09.780Z,1.59
2023-04-28T05:01:09.777Z,1.00
2023-04-28T05:02:09.947Z,1.24
2023-04-28T05:03:09.903Z,1.39
2023-04-28T05:04:09.987Z,1.40
2023-04-28T05:05:20.413Z,1.26
2023-04-28T05:06:09.776Z,1.17
2023-04-28T05:07:10.126Z,1.26
2023-04-28T05:08:09.779Z,1.35
2023-04-28T05:09:09.767Z,1.06
2023-04-28T05:10:09.779Z,1.31
2023-04-28T05:11:09.769Z,1.09
2023-04-28T05:12:10.124Z,1.17
2023-04-28T05:13:09.787Z,1.10
2023-04-28T05:14:09.742Z,1.26
2023-04-28T05:15:10.122Z,1.36
2023-04-28T05:16:09.396Z,1.13
2023-04-28T05:17:09.337Z,1.42
2023-04-28T05:18:09.374Z,1.05
2023-04-28T05:19:09.827Z,1.04
2023-04-28T05:20:10.192Z,1.23
2023-04-28T05:21:09.299Z,1.51
2023-04-28T05:22:09.781Z,1.10
2023-04-28T05:23:09.281Z,1.11
2023-04-28T05:24:09.276Z,1.07
2023-04-28T05:25:09.244Z,0.93
2023-04-28T05:26:09.252Z,1.41
2023-04-28T05:27:09.237Z,1.65
2023-04-28T05:28:09.794Z,1.02
2023-04-28T05:29:09.791Z,1.20
2023-04-28T05:30:09.322Z,1.15
2023-04-28T05:31:09.197Z,1.43
2023-04-28T05:32:09.239Z,1.60
2023-04-28T05:33:09.231Z,1.13
2023-04-28T05:34:09.797Z,1.21
2023-04-28T05:35:09.165Z,1.25
2023-04-28T05:36:09.220Z,1.23
2023-04-28T05:37:09.138Z,1.44
2023-04-28T05:38:09.170Z,1.21
2023-04-28T05:39:09.860Z,1.47
2023-04-28T05:40:09.143Z,1.18
2023-04-28T05:41:09.126Z,1.02
2023-04-28T05:42:09.153Z,1.01
2023-04-28T05:43:09.110Z,1.33
2023-04-28T05:44:09.301Z,1.19
2023-04-28T05:45:09.226Z,1.11
2023-04-28T05:46:18.138Z,1.33
2023-04-28T05:47:09.667Z,1.52
2023-04-28T05:48:09.261Z,1.37
2023-04-28T05:49:09.220Z,1.21
2023-04-28T05:50:09.636Z,1.25
2023-04-28T05:51:09.199Z,1.15
2023-04-28T05:52:09.225Z,1.26
2023-04-28T05:53:09.190Z,1.19
2023-04-28T05:54:12.423Z,1.46
2023-04-28T05:55:10.642Z,1.09
2023-04-28T05:56:09.216Z,1.44
2023-04-28T05:57:09.649Z,1.23
2023-04-28T05:58:09.329Z,1.34
2023-04-28T05:59:25.248Z,1.16
2023-04-28T06:00:16.784Z,1.40
2023-04-28T06:01:09.337Z,1.53
2023-04-28T06:02:09.569Z,1.12
2023-04-28T06:03:10.518Z,1.09
2023-04-28T06:04:13.037Z,1.37
2023-04-28T06:05:09.504Z,1.23
2023-04-28T06:06:12.492Z,1.18
2023-04-28T06:07:09.658Z,1.33
2023-04-28T06:08:10.154Z,1.15
2023-04-28T06:09:09.217Z,1.09
2023-04-28T06:10:09.204Z,1.31
2023-04-28T06:11:09.192Z,1.37
2023-04-28T06:12:10.097Z,1.26
2023-04-28T06:13:09.207Z,1.74
2023-04-28T06:14:09.197Z,1.32
2023-04-28T06:15:09.187Z,1.28
2023-04-28T06:16:09.231Z,1.33
2023-04-28T06:17:09.192Z,1.27
2023-04-28T06:18:09.248Z,1.20
2023-04-28T06:19:09.207Z,1.70
2023-04-28T06:20:09.194Z,1.79
2023-04-28T06:21:09.205Z,1.18
2023-04-28T06:22:09.663Z,1.15
2023-04-28T06:23:09.192Z,1.45
2023-04-28T06:24:09.219Z,1.36
2023-04-28T06:25:09.252Z,1.77
2023-04-28T06:26:09.294Z,1.47
2023-04-28T06:27:09.652Z,1.35
2023-04-28T06:28:09.658Z,1.24
2023-04-28T06:29:09.357Z,1.27
2023-04-28T06:30:09.429Z,1.33
2023-04-28T06:31:09.468Z,1.50
2023-04-28T06:32:09.682Z,1.61
2023-04-28T06:33:09.542Z,1.55
2023-04-28T06:34:09.678Z,1.14
2023-04-28T06:35:09.601Z,1.62
2023-04-28T06:36:09.643Z,1.84
2023-04-28T06:37:09.679Z,1.41
2023-04-28T06:38:09.669Z,1.16
2023-04-28T06:39:09.690Z,1.35
2023-04-28T06:40:09.684Z,1.49
2023-04-28T06:41:09.696Z,1.41
2023-04-28T06:42:10.161Z,1.95
2023-04-28T06:43:10.138Z,1.60
2023-04-28T06:44:10.145Z,1.61
2023-04-28T06:45:10.127Z,1.47
2023-04-28T06:46:13.354Z,1.37
2023-04-28T06:47:10.381Z,1.39
2023-04-28T06:48:10.269Z,1.41
2023-04-28T06:49:09.715Z,1.46
2023-04-28T06:50:10.717Z,1.27
2023-04-28T06:51:09.668Z,1.53
2023-04-28T06:52:13.196Z,1.99
2023-04-28T06:53:09.671Z,1.36
2023-04-28T06:54:09.647Z,1.61
2023-04-28T06:55:09.657Z,1.35
2023-04-28T06:56:11.375Z,1.37
2023-04-28T06:57:09.596Z,1.40
2023-04-28T06:58:09.667Z,1.21
2023-04-28T06:59:09.569Z,1.17
2023-04-28T07:00:09.552Z,2.00
2023-04-28T07:01:09.599Z,1.67
2023-04-28T07:02:09.570Z,1.98
2023-04-28T07:03:09.812Z,1.32
2023-04-28T07:04:09.724Z,1.22
2023-04-28T07:05:09.495Z,1.57
2023-04-28T07:06:09.521Z,1.60
2023-04-28T07:07:09.443Z,1.61
2023-04-28T07:08:09.669Z,1.41
2023-04-28T07:09:09.432Z,1.71
2023-04-28T07:10:09.427Z,1.51
2023-04-28T07:11:09.673Z,1.84
2023-04-28T07:12:09.682Z,1.89
2023-04-28T07:13:09.674Z,1.37
2023-04-28T07:14:09.414Z,1.41
2023-04-28T07:15:10.211Z,1.25
2023-04-28T07:16:09.365Z,1.54
2023-04-28T07:17:09.346Z,1.58
2023-04-28T07:18:09.757Z,1.41
2023-04-28T07:19:09.337Z,1.08
2023-04-28T07:20:09.328Z,1.46
2023-04-28T07:21:09.340Z,1.48
2023-04-28T07:22:10.196Z,1.44
2023-04-28T07:23:09.709Z,1.51
2023-04-28T07:24:09.427Z,1.75
2023-04-28T07:25:09.681Z,1.47
2023-04-28T07:26:09.509Z,1.58
2023-04-28T07:27:10.186Z,1.47
2023-04-28T07:28:09.679Z,1.54
2023-04-28T07:29:09.631Z,1.51
2023-04-28T07:30:26.689Z,1.41
2023-04-28T07:31:10.182Z,1.42
2023-04-28T07:32:09.763Z,1.45
2023-04-28T07:33:10.713Z,1.51
2023-04-28T07:34:09.816Z,1.68
2023-04-28T07:35:09.684Z,1.48
2023-04-28T07:36:09.650Z,1.59
2023-04-28T07:37:09.672Z,1.93
2023-04-28T07:38:09.665Z,1.47
2023-04-28T07:39:09.642Z,1.51
2023-04-28T07:40:09.734Z,1.75
2023-04-28T07:41:11.201Z,1.57
2023-04-28T07:42:09.691Z,1.74
2023-04-28T07:43:09.684Z,1.57
2023-04-28T07:44:09.604Z,1.66
2023-04-28T07:45:09.597Z,1.40
2023-04-28T07:46:09.658Z,1.84
2023-04-28T07:47:09.652Z,1.76
2023-04-28T07:48:09.727Z,2.05
2023-04-28T07:49:09.533Z,1.63
2023-04-28T07:50:09.680Z,1.44
2023-04-28T07:51:09.951Z,1.59
2023-04-28T07:52:09.739Z,1.75
2023-04-28T07:53:10.111Z,1.59
2023-04-28T07:54:09.537Z,1.80
2023-04-28T07:55:09.513Z,1.73
2023-04-28T07:56:09.470Z,1.75
2023-04-28T07:57:09.706Z,1.26
2023-04-28T07:58:09.450Z,1.79
2023-04-28T07:59:09.454Z,1.46
2023-04-28T08:00:09.443Z,1.62
2023-04-28T08:01:09.435Z,1.79
2023-04-28T08:02:10.214Z,1.77
2023-04-28T08:03:09.632Z,1.67
2023-04-28T08:04:09.933Z,1.59
2023-04-28T08:05:09.833Z,1.79
2023-04-28T08:06:09.554Z,1.97
2023-04-28T08:07:09.688Z,1.44
2023-04-28T08:08:09.379Z,1.35
2023-04-28T08:09:09.352Z,1.87
2023-04-28T08:10:09.382Z,1.73
2023-04-28T08:11:09.351Z,1.77
2023-04-28T08:12:10.067Z,1.74
2023-04-28T08:13:09.412Z,1.84
2023-04-28T08:14:09.450Z,1.61
2023-04-28T08:15:10.173Z,1.40
2023-04-28T08:16:09.577Z,1.69
2023-04-28T08:17:09.627Z,1.64
2023-04-28T08:18:09.785Z,1.53
2023-04-28T08:19:09.667Z,1.35
2023-04-28T08:20:09.741Z,1.67
2023-04-28T08:21:09.774Z,1.54
2023-04-28T08:22:10.188Z,1.85
2023-04-28T08:23:09.866Z,2.22
2023-04-28T08:24:09.909Z,1.76
2023-04-28T08:25:09.960Z,1.85
2023-04-28T08:26:10.111Z,1.54
2023-04-28T08:27:10.205Z,1.69
2023-04-28T08:28:10.096Z,1.96
2023-04-28T08:29:10.108Z,1.58
2023-04-28T08:30:10.198Z,1.58
2023-04-28T08:31:10.744Z,1.78
2023-04-28T08:32:10.238Z,1.60
2023-04-28T08:33:10.812Z,1.44
2023-04-28T08:34:10.701Z,1.38
2023-04-28T08:35:10.364Z,1.79
2023-04-28T08:36:10.411Z,1.95
2023-04-28T08:37:10.469Z,1.26
2023-04-28T08:38:10.497Z,1.72
2023-04-28T08:39:13.945Z,1.65
2023-04-28T08:40:10.543Z,1.49
2023-04-28T08:41:10.526Z,1.49
2023-04-28T08:42:13.930Z,1.70
2023-04-28T08:43:10.713Z,1.78
2023-04-28T08:44:13.723Z,1.80
2023-04-28T08:45:10.513Z,1.51
2023-04-28T08:46:10.564Z,1.52
2023-04-28T08:47:11.085Z,1.71
2023-04-28T08:48:11.035Z,1.84
2023-04-28T08:49:10.479Z,2.61
2023-04-28T08:50:10.469Z,2.08
2023-04-28T08:51:10.480Z,2.39
2023-04-28T08:52:10.485Z,1.83
2023-04-28T08:53:10.766Z,1.94
2023-04-28T08:54:18.936Z,4.26
2023-04-28T08:55:10.464Z,2.75
2023-04-28T08:56:10.448Z,2.43
2023-04-28T08:57:10.445Z,2.33
2023-04-28T08:58:10.459Z,2.75
2023-04-28T08:59:10.416Z,2.36
2023-04-28T09:00:10.406Z,2.30
2023-04-28T09:01:17.928Z,2.64
2023-04-28T09:02:10.815Z,2.57
2023-04-28T09:03:11.224Z,2.35
2023-04-28T09:04:14.269Z,2.43
2023-04-28T09:05:10.890Z,2.35
2023-04-28T09:06:10.254Z,2.54
2023-04-28T09:07:10.734Z,2.43
2023-04-28T09:08:10.412Z,2.37
2023-04-28T09:09:10.409Z,3.01
2023-04-28T09:10:10.295Z,3.22
2023-04-28T09:11:10.372Z,2.34
2023-04-28T09:12:10.387Z,3.34
2023-04-28T09:13:10.511Z,2.57
2023-04-28T09:14:10.421Z,2.90
2023-04-28T09:15:10.328Z,3.42
2023-04-28T09:16:10.240Z,3.11
2023-04-28T09:17:10.263Z,3.09
2023-04-28T09:18:10.357Z,3.98
2023-04-28T09:19:10.276Z,3.05
2023-04-28T09:20:10.210Z,3.04
2023-04-28T09:21:10.177Z,2.80
2023-04-28T09:22:24.753Z,3.46
2023-04-28T09:23:10.038Z,3.52
2023-04-28T09:24:10.136Z,3.27
2023-04-28T09:25:10.304Z,3.55
2023-04-28T09:26:09.982Z,3.79
2023-04-28T09:27:10.123Z,3.71
2023-04-28T09:28:10.368Z,3.56
2023-04-28T09:29:09.939Z,3.80
2023-04-28T09:30:09.788Z,3.03
2023-04-28T09:31:09.720Z,3.52
2023-04-28T09:32:09.719Z,4.16
2023-04-28T09:33:11.462Z,3.84
2023-04-28T09:34:09.670Z,3.68
2023-04-28T09:35:10.020Z,3.62
2023-04-28T09:36:09.628Z,5.18
2023-04-28T09:37:09.605Z,4.09
2023-04-28T09:38:09.756Z,4.01
2023-04-28T09:39:09.594Z,4.23
2023-04-28T09:40:09.620Z,3.39
2023-04-28T09:41:09.528Z,3.17
2023-04-28T09:42:10.086Z,3.34
2023-04-28T09:43:21.251Z,3.09
2023-04-28T09:44:09.511Z,3.43
2023-04-28T09:45:09.464Z,2.60
2023-04-28T09:46:09.505Z,3.52
2023-04-28T09:47:10.093Z,3.44
2023-04-28T09:48:10.160Z,2.64
2023-04-28T09:49:09.360Z,3.48
2023-04-28T09:50:10.138Z,3.09
2023-04-28T09:51:12.863Z,2.78
2023-04-28T09:52:13.554Z,3.20
2023-04-28T09:53:09.664Z,3.06
2023-04-28T09:54:09.271Z,3.44
2023-04-28T09:55:10.230Z,3.09
2023-04-28T09:56:09.214Z,2.95
2023-04-28T09:57:09.267Z,3.72
2023-04-28T09:58:09.239Z,3.02
2023-04-28T09:59:09.234Z,2.73
2023-04-28T10:00:09.725Z,2.96
2023-04-28T10:01:09.304Z,3.28
2023-04-28T10:02:28.829Z,3.36
2023-04-28T10:03:09.337Z,2.86
2023-04-28T10:04:09.356Z,3.06
2023-04-28T10:05:09.892Z,2.88
2023-04-28T10:06:09.194Z,3.13
2023-04-28T10:07:09.206Z,3.22
2023-04-28T10:08:09.192Z,2.74
2023-04-28T10:09:09.240Z,3.05
2023-04-28T10:10:09.197Z,2.75
2023-04-28T10:11:09.200Z,2.87
2023-04-28T10:12:10.187Z,3.08
2023-04-28T10:13:09.191Z,2.91
2023-04-28T10:14:09.254Z,3.05
2023-04-28T10:15:09.201Z,2.85
2023-04-28T10:16:09.347Z,3.21
2023-04-28T10:17:09.269Z,3.16
2023-04-28T10:18:08.836Z,3.39
2023-04-28T10:19:08.742Z,3.24
2023-04-28T10:20:08.778Z,3.27
2023-04-28T10:21:08.683Z,3.82
2023-04-28T10:22:08.658Z,3.28
2023-04-28T10:23:08.758Z,3.32
2023-04-28T10:24:08.785Z,3.15
2023-04-28T10:25:08.615Z,2.57
2023-04-28T10:26:08.602Z,3.48
2023-04-28T10:27:08.585Z,2.89
2023-04-28T10:28:08.761Z,2.82
2023-04-28T10:29:08.617Z,3.10
2023-04-28T10:30:19.168Z,3.16
2023-04-28T10:31:08.856Z,2.96
2023-04-28T10:32:08.529Z,3.68
2023-04-28T10:33:08.689Z,3.42
2023-04-28T10:34:08.781Z,2.85
2023-04-28T10:35:08.493Z,3.35
2023-04-28T10:36:08.457Z,2.86
2023-04-28T10:37:08.468Z,3.60
2023-04-28T10:38:08.769Z,3.36
2023-04-28T10:39:08.400Z,3.05
2023-04-28T10:40:08.441Z,3.40
2023-04-28T10:41:08.757Z,3.23
2023-04-28T10:42:08.337Z,2.94
2023-04-28T10:43:08.301Z,2.71
2023-04-28T10:44:08.291Z,2.99
2023-04-28T10:45:08.268Z,2.54
2023-04-28T10:46:08.816Z,2.90
2023-04-28T10:47:08.286Z,3.00
2023-04-28T10:48:08.241Z,2.64
2023-04-28T10:49:09.762Z,3.23
2023-04-28T10:50:08.330Z,3.06
2023-04-28T10:51:08.305Z,3.07
2023-04-28T10:52:08.306Z,2.57
2023-04-28T10:53:08.759Z,2.37
2023-04-28T10:54:08.321Z,2.86
2023-04-28T10:55:19.276Z,2.50
2023-04-28T10:56:08.760Z,2.66
2023-04-28T10:57:08.301Z,2.39
2023-04-28T10:58:08.761Z,2.42
2023-04-28T10:59:08.260Z,2.56
2023-04-28T11:00:08.227Z,3.26
2023-04-28T11:01:08.260Z,2.90
2023-04-28T11:02:08.220Z,2.68
2023-04-28T11:03:08.297Z,2.80
2023-04-28T11:04:08.543Z,2.57
2023-04-28T11:05:08.429Z,2.71
2023-04-28T11:06:08.158Z,2.74
2023-04-28T11:07:08.187Z,2.63
2023-04-28T11:08:08.086Z,2.47
2023-04-28T11:09:08.085Z,3.14
2023-04-28T11:10:08.269Z,2.76
2023-04-28T11:11:08.046Z,3.14
2023-04-28T11:12:08.258Z,2.68
2023-04-28T11:13:07.992Z,2.55
2023-04-28T11:14:07.992Z,2.98
2023-04-28T11:15:07.993Z,2.59
2023-04-28T11:16:08.022Z,2.34
2023-04-28T11:17:08.273Z,2.90
2023-04-28T11:18:08.033Z,2.37
2023-04-28T11:19:07.993Z,2.51
2023-04-28T11:20:08.269Z,2.27
2023-04-28T11:21:07.985Z,2.70
2023-04-28T11:22:08.042Z,2.41
2023-04-28T11:23:07.996Z,2.87
2023-04-28T11:24:08.275Z,3.12
2023-04-28T11:25:07.990Z,3.18
2023-04-28T11:26:07.996Z,3.05
2023-04-28T11:27:07.999Z,2.29
2023-04-28T11:28:07.998Z,2.53
2023-04-28T11:29:08.012Z,2.12
2023-04-28T11:30:08.212Z,2.38
2023-04-28T11:31:08.002Z,2.70
2023-04-28T11:32:08.077Z,3.03
2023-04-28T11:33:08.079Z,2.64
2023-04-28T11:34:08.015Z,2.75
2023-04-28T11:35:08.003Z,2.49
2023-04-28T11:36:07.998Z,2.72
2023-04-28T11:37:08.002Z,2.47
2023-04-28T11:38:08.070Z,2.46
2023-04-28T11:39:08.283Z,2.71
2023-04-28T11:40:08.000Z,2.17
2023-04-28T11:41:08.004Z,2.79
2023-04-28T11:42:08.006Z,2.88
2023-04-28T11:43:08.021Z,2.99
2023-04-28T11:44:08.005Z,2.74
2023-04-28T11:45:08.303Z,2.90
2023-04-28T11:46:08.067Z,2.74
2023-04-28T11:47:08.006Z,2.22
2023-04-28T11:48:08.033Z,2.35
2023-04-28T11:49:08.014Z,2.74
2023-04-28T11:50:08.003Z,3.09
2023-04-28T11:51:08.002Z,3.01
2023-04-28T11:52:08.015Z,3.83
2023-04-28T11:53:08.030Z,3.68
2023-04-28T11:54:08.301Z,3.35
2023-04-28T11:55:08.011Z,3.31
2023-04-28T11:56:08.046Z,3.79
2023-04-28T11:57:08.020Z,2.97
2023-04-28T11:58:08.026Z,3.50
2023-04-28T11:59:08.050Z,2.97
2023-04-28T12:00:08.023Z,3.16
2023-04-28T12:01:08.029Z,2.93
2023-04-28T12:02:08.058Z,3.22
2023-04-28T12:03:08.203Z,3.21
2023-04-28T12:04:08.148Z,2.76
2023-04-28T12:05:08.193Z,2.75
2023-04-28T12:06:08.101Z,2.61
2023-04-28T12:07:08.129Z,2.78
2023-04-28T12:08:08.139Z,3.27
2023-04-28T12:09:08.288Z,3.15
2023-04-28T12:10:08.310Z,2.71
2023-04-28T12:11:08.202Z,2.58
2023-04-28T12:12:08.218Z,2.26
2023-04-28T12:13:08.243Z,3.25
2023-04-28T12:14:08.319Z,2.44
2023-04-28T12:15:08.276Z,2.23
2023-04-28T12:16:08.337Z,2.59
2023-04-28T12:17:08.323Z,2.29
2023-04-28T12:18:08.373Z,2.67
2023-04-28T12:19:08.361Z,2.11
2023-04-28T12:20:08.460Z,2.61
2023-04-28T12:21:08.414Z,2.64
2023-04-28T12:22:08.459Z,2.52
2023-04-28T12:23:08.830Z,3.23
2023-04-28T12:24:08.477Z,2.70
2023-04-28T12:25:08.572Z,2.40
2023-04-28T12:26:08.542Z,2.48
2023-04-28T12:27:08.537Z,2.66
2023-04-28T12:28:08.715Z,2.85
2023-04-28T12:29:08.843Z,2.33
2023-04-28T12:30:08.597Z,2.45
2023-04-28T12:31:08.672Z,1.98
2023-04-28T12:32:08.636Z,2.58
2023-04-28T12:33:08.740Z,2.92
2023-04-28T12:34:08.795Z,2.27
2023-04-28T12:35:08.705Z,2.41
2023-04-28T12:36:08.727Z,3.03
2023-04-28T12:37:08.745Z,2.74
2023-04-28T12:38:08.770Z,2.76
2023-04-28T12:39:08.802Z,2.57
2023-04-28T12:40:08.845Z,3.58
2023-04-28T12:41:08.856Z,2.38
2023-04-28T12:42:08.897Z,2.48
2023-04-28T12:43:08.883Z,2.51
2023-04-28T12:44:09.303Z,2.71
2023-04-28T12:45:08.939Z,2.52
2023-04-28T12:46:09.000Z,2.32
2023-04-28T12:47:08.993Z,2.48
2023-04-28T12:48:09.055Z,2.01
2023-04-28T12:49:09.308Z,2.03
2023-04-28T12:50:09.100Z,2.55
2023-04-28T12:51:09.095Z,2.54
2023-04-28T12:52:09.120Z,2.32
2023-04-28T12:53:09.151Z,2.51
2023-04-28T12:54:09.342Z,2.39
2023-04-28T12:55:09.197Z,3.15
2023-04-28T12:56:09.229Z,2.33
2023-04-28T12:57:09.259Z,2.75
2023-04-28T12:58:09.290Z,2.42
2023-04-28T12:59:09.323Z,2.28
2023-04-28T13:00:09.322Z,2.22
2023-04-28T13:01:09.353Z,2.05
2023-04-28T13:02:09.374Z,2.21
2023-04-28T13:03:09.623Z,2.16
2023-04-28T13:04:09.575Z,2.47
2023-04-28T13:05:09.485Z,2.52
2023-04-28T13:06:09.478Z,2.70
2023-04-28T13:07:09.504Z,2.24
2023-04-28T13:08:09.534Z,2.21
2023-04-28T13:09:09.811Z,2.30
2023-04-28T13:10:09.592Z,2.66
2023-04-28T13:11:21.877Z,2.41
2023-04-28T13:12:09.577Z,2.36
2023-04-28T13:13:09.561Z,2.44
2023-04-28T13:14:09.560Z,2.17
2023-04-28T13:15:09.522Z,2.75
2023-04-28T13:16:09.711Z,1.84
2023-04-28T13:17:09.497Z,2.59
2023-04-28T13:18:09.487Z,2.58
2023-04-28T13:19:09.486Z,2.81
2023-04-28T13:20:09.493Z,2.21